Flight Track Log - Related Links

Times and Time Zones

All times are in EDT time to prevent confusion due to time zone crossing. See the N41WM flight status page for this flight to view local times or setup timezone preferences in your user account.

Time Position Orientation Groundspeed Altitude Reporting Facility
EDT Latitude Longitude Course Direction KTS MPH feet Rate Location/Type
Thu 06:23:18 PM 41.7478 -72.6600 303° West 82 94 1,300  Level Boston Center
Thu 06:24:18 PM 41.7269 -72.6653 191° South 82 94 2,100 756 Climbing Boston Center
Thu 06:25:25 PM 41.7019 -72.6653 180° South 79 91 2,900 609 Climbing Boston Center
Thu 06:26:26 PM 41.6792 -72.6597 170° South 80 92 3,400 563 Climbing Boston Center
Thu 06:27:33 PM 41.6519 -72.6622 184° South 88 101 4,100 550 Climbing Boston Center
Thu 06:28:15 PM 41.6353 -72.6650 187° South 88 101 4,400 275 Climbing Boston Center
Thu 06:29:22 PM 41.6019 -72.6733 191° South 109 125 4,600 94 Climbing Boston Center
Thu 06:30:23 PM 41.5728 -72.6786 188° South 111 128 4,600 -47 Level Boston Center
Thu 06:31:29 PM 41.5372 -72.6897 193° South 121 139 4,500 -38 Descending Boston Center
Thu 06:33:01 PM 41.5000 -72.7000 192° South 111 128 4,500 39 Level New York TRACON
Thu 06:34:01 PM 41.4667 -72.7000 180° South 111 128 4,600 50 Climbing New York TRACON
Thu 06:35:01 PM 41.4333 -72.7167 201° Southwest 109 125 4,600  Level New York TRACON
Thu 06:36:01 PM 41.4000 -72.7333 201° Southwest 112 129 4,600 -50 Level New York TRACON
Thu 06:37:01 PM 41.3667 -72.7333 180° South 118 136 4,500 -50 Descending New York TRACON
Thu 06:38:01 PM 41.3333 -72.7333 180° South 113 130 4,500  Level New York TRACON
Thu 06:39:01 PM 41.3167 -72.7333 180° South 114 131 4,500 -150 Level New York TRACON
Thu 06:40:01 PM 41.2833 -72.7333 180° South 116 133 4,200 -400 Descending New York TRACON
Thu 06:41:01 PM 41.2500 -72.7333 180° South 116 133 3,700 -350 Descending New York TRACON
Thu 06:42:01 PM 41.2167 -72.7500 201° Southwest 110 127 3,500 -100 Descending New York TRACON
Thu 06:43:01 PM 41.1833 -72.7500 180° South 108 124 3,500  Level New York TRACON
Thu 06:44:01 PM 41.1500 -72.7500 180° South 107 123 3,500 -50 Level New York TRACON
Thu 06:45:01 PM 41.1167 -72.7667 201° Southwest 112 129 3,400  Descending New York TRACON
Thu 06:46:01 PM 41.1000 -72.7667 180° South 109 125 3,500 50 Climbing New York TRACON
Thu 06:47:01 PM 41.0667 -72.7833 201° Southwest 109 125 3,500  Level New York TRACON
Thu 06:48:01 PM 41.0333 -72.7833 180° South 112 129 3,500  Level New York TRACON
Thu 06:49:01 PM 41.0000 -72.7833 180° South 112 129 3,500  Level New York TRACON
Thu 06:51:00 PM 40.9478 -72.8238 189° South  Level FlightAware Approximate
Thu 06:58:00 PM 40.8167 -72.8667 197° South  Level FlightAware Approximate
Thu 06:59:00 PM 40.8219 -72.8669 197° South  Level Estimated
Thu 07:00:00 PM 40.8167 -72.8667 197° South  Level FlightAware Approximate
Thu 07:01:00 PM 40.8219 -72.8669 197° South  Level Estimated
Thu 07:02:00 PM 40.8167 -72.8667 197° South  Level FlightAware Approximate
Thu 07:03:00 PM 40.8219 -72.8669 197° South  Level Estimated
Thu 07:04:00 PM 40.8167 -72.8667 197° South  Level FlightAware Approximate

Login

Don't have an account? Register now (free) for customized features, flight alerts, and more!